Time;durP1;ratioP1;P1;durP2;ratioP2;P2;SDS_P1;SDS_P2;PMS_P1;PMS_P2;Temp;Humidity;BMP_temperature;BMP_pressure;BME280_temperature;BME280_humidity;BME280_pressure;Samples;Min_cycle;Max_cycle;Signal;HPM_P1;HPM_P2
2022/09/09 00:01:22;;;;;;;4.43;1.85;;;15.20;99.90;;;;;;4972034;28;20038;-94
2022/09/09 00:03:58;;;;;;;4.53;1.45;;;15.20;99.90;;;;;;4980024;28;20038;-93
2022/09/09 00:06:35;;;;;;;5.75;1.90;;;15.10;99.90;;;;;;4962904;28;20372;-92
2022/09/09 00:09:16;;;;;;;4.78;1.65;;;15.10;99.90;;;;;;4975596;28;20065;-94
2022/09/09 00:11:52;;;;;;;5.93;1.50;;;15.00;99.90;;;;;;4994575;28;20504;-93
2022/09/09 00:14:43;;;;;;;4.30;1.77;;;15.00;99.90;;;;;;4973910;28;20022;-93
2022/09/09 00:17:23;;;;;;;3.45;1.70;;;15.00;99.90;;;;;;4983459;28;20026;-95
2022/09/09 00:20:14;;;;;;;5.53;1.80;;;14.90;99.90;;;;;;4985338;28;20421;-94
2022/09/09 00:22:47;;;;;;;4.97;1.50;;;14.90;99.90;;;;;;4967350;28;20125;-94
2022/09/09 00:25:23;;;;;;;5.55;1.23;;;14.80;99.90;;;;;;4980836;28;20023;-94
2022/09/09 00:27:50;;;;;;;3.05;1.02;;;14.80;99.90;;;;;;4976287;28;20027;-93
2022/09/09 00:30:30;;;;;;;3.88;1.23;;;14.80;99.90;;;;;;4976467;28;20049;-95
2022/09/09 00:33:02;;;;;;;3.67;1.20;;;14.70;99.90;;;;;;4984336;28;20030;-93
2022/09/09 00:35:49;;;;;;;4.45;1.05;;;14.70;99.90;;;;;;4980210;28;20467;-95
2022/09/09 00:38:19;;;;;;;4.70;1.15;;;14.60;99.90;;;;;;4989072;28;20041;-94
2022/09/09 00:40:56;;;;;;;3.35;1.25;;;14.60;99.90;;;;;;4983894;28;20447;-94
2022/09/09 00:43:29;;;;;;;2.83;0.95;;;14.50;99.90;;;;;;4962193;28;20066;-95
2022/09/09 00:46:10;;;;;;;2.72;0.85;;;14.40;99.90;;;;;;4977167;28;20510;-94
2022/09/09 00:48:54;;;;;;;1.90;0.80;;;14.40;99.90;;;;;;5000626;28;20014;-95
2022/09/09 00:51:44;;;;;;;2.20;1.10;;;14.30;99.90;;;;;;4985722;28;20037;-95
2022/09/09 00:54:18;;;;;;;4.45;1.10;;;14.30;99.90;;;;;;4995173;28;20046;-95
2022/09/09 00:56:53;;;;;;;1.85;0.93;;;14.30;99.90;;;;;;4967782;28;20054;-94
2022/09/09 00:59:44;;;;;;;3.70;0.80;;;14.20;99.90;;;;;;4982769;28;20398;-93
2022/09/09 01:02:23;;;;;;;6.30;1.20;;;14.20;99.90;;;;;;4978107;28;20376;-93
2022/09/09 01:04:48;;;;;;;4.55;1.05;;;14.20;99.90;;;;;;4968430;28;20037;-96
2022/09/09 01:07:18;;;;;;;3.90;1.15;;;14.10;99.90;;;;;;4972601;28;20043;-95
2022/09/09 01:09:58;;;;;;;2.55;1.10;;;14.10;99.90;;;;;;4986859;28;20530;-95
2022/09/09 01:12:41;;;;;;;3.25;1.30;;;14.10;99.90;;;;;;4977418;28;20513;-95
2022/09/09 01:15:41;;;;;;;4.72;1.63;;;14.00;99.90;;;;;;4967599;28;20051;-94
2022/09/09 01:18:12;;;;;;;2.22;1.00;;;14.00;99.90;;;;;;4974413;28;20490;-95
2022/09/09 01:21:13;;;;;;;3.90;1.40;;;13.90;99.90;;;;;;4973985;28;20034;-95
2022/09/09 01:24:11;;;;;;;3.83;1.27;;;13.90;99.90;;;;;;4978718;28;20038;-94
2022/09/09 01:26:42;;;;;;;3.90;1.77;;;13.90;99.90;;;;;;4987845;28;20530;-93
2022/09/09 01:29:11;;;;;;;3.65;1.85;;;13.90;99.90;;;;;;4983384;28;20520;-95
2022/09/09 01:31:41;;;;;;;5.70;1.85;;;13.80;99.90;;;;;;4991514;28;20038;-94
2022/09/09 01:34:14;;;;;;;4.38;1.67;;;13.80;99.90;;;;;;4964616;28;20062;-95
2022/09/09 01:36:55;;;;;;;4.82;1.90;;;13.80;99.90;;;;;;4974139;28;20023;-93
2022/09/09 01:39:21;;;;;;;3.85;1.40;;;13.80;99.90;;;;;;4986166;28;20046;-93
2022/09/09 01:41:46;;;;;;;5.32;2.17;;;13.70;99.90;;;;;;4979905;28;20117;-94
2022/09/09 01:44:13;;;;;;;7.65;2.35;;;13.70;99.90;;;;;;4991594;28;20058;-94
2022/09/09 01:46:38;;;;;;;2.90;2.20;;;13.70;99.90;;;;;;4976657;28;20057;-94
2022/09/09 01:49:06;;;;;;;4.18;2.35;;;13.70;99.90;;;;;;4990145;28;20027;-93
2022/09/09 01:51:33;;;;;;;4.85;2.30;;;13.60;99.90;;;;;;4976607;28;20026;-94
2022/09/09 01:53:59;;;;;;;4.35;2.08;;;13.60;99.90;;;;;;4997531;28;20054;-96
2022/09/09 01:56:40;;;;;;;4.13;2.30;;;13.60;99.90;;;;;;4997829;28;20030;-94
2022/09/09 01:59:08;;;;;;;4.53;2.28;;;13.60;99.90;;;;;;4996849;28;20082;-94
2022/09/09 02:01:59;;;;;;;6.55;3.60;;;13.50;99.90;;;;;;4978829;28;20022;-93
2022/09/09 02:04:36;;;;;;;3.88;2.47;;;13.50;99.90;;;;;;4979470;28;20026;-92
2022/09/09 02:07:01;;;;;;;4.68;2.15;;;13.50;99.90;;;;;;4976272;28;20406;-96
2022/09/09 02:09:29;;;;;;;3.92;2.45;;;13.50;99.90;;;;;;4980417;28;20030;-93
2022/09/09 02:12:07;;;;;;;5.47;2.45;;;13.50;99.90;;;;;;4996380;28;20037;-94
2022/09/09 02:14:39;;;;;;;6.10;2.53;;;13.50;99.90;;;;;;4963015;28;20081;-95
2022/09/09 02:17:10;;;;;;;6.00;2.28;;;13.40;99.90;;;;;;4980834;28;20023;-94
2022/09/09 02:19:45;;;;;;;3.50;2.05;;;13.40;99.90;;;;;;4984543;28;20047;-94
2022/09/09 02:22:11;;;;;;;4.55;2.30;;;13.40;99.90;;;;;;4971121;28;20038;-94
2022/09/09 02:24:40;;;;;;;3.30;2.30;;;13.40;99.90;;;;;;4979731;28;20057;-95
2022/09/09 02:27:08;;;;;;;3.80;2.17;;;13.40;99.90;;;;;;4978697;28;20565;-94
2022/09/09 02:29:44;;;;;;;10.27;2.83;;;13.40;99.90;;;;;;4996844;28;20042;-94
2022/09/09 02:32:18;;;;;;;4.40;2.42;;;13.40;99.90;;;;;;4976012;28;20390;-95
2022/09/09 02:34:48;;;;;;;4.35;1.58;;;13.40;99.90;;;;;;4980144;28;20038;-96
2022/09/09 02:37:16;;;;;;;4.78;1.80;;;13.40;99.90;;;;;;4980709;28;20022;-93
2022/09/09 02:39:42;;;;;;;4.72;2.00;;;13.40;99.90;;;;;;4992003;28;20085;-94
2022/09/09 02:42:08;;;;;;;3.53;1.75;;;13.40;99.90;;;;;;4976876;28;20367;-93
2022/09/09 02:44:34;;;;;;;7.00;2.00;;;13.40;99.90;;;;;;4986076;28;20101;-93
2022/09/09 02:47:21;;;;;;;5.30;2.42;;;13.40;99.90;;;;;;4976980;28;20030;-95
2022/09/09 02:49:57;;;;;;;5.90;2.45;;;13.40;99.90;;;;;;4981380;28;20022;-93
2022/09/09 02:52:37;;;;;;;5.75;2.28;;;13.40;99.90;;;;;;4989142;28;20026;-96
2022/09/09 02:55:14;;;;;;;5.35;2.30;;;13.30;99.90;;;;;;4968353;28;20045;-93
2022/09/09 02:57:41;;;;;;;4.95;2.10;;;13.30;99.90;;;;;;4978629;28;20070;-95
2022/09/09 03:00:07;;;;;;;5.63;2.35;;;13.30;99.90;;;;;;4983938;28;20614;-95
2022/09/09 03:02:33;;;;;;;4.80;2.20;;;13.30;99.90;;;;;;4988594;28;20027;-94
2022/09/09 03:04:58;;;;;;;7.60;2.40;;;13.30;99.90;;;;;;4980200;28;20610;-95
2022/09/09 03:07:24;;;;;;;3.60;2.75;;;13.30;99.90;;;;;;4983549;28;20050;-94
2022/09/09 03:09:49;;;;;;;4.65;2.40;;;13.30;99.90;;;;;;4986739;28;20042;-94
2022/09/09 03:12:16;;;;;;;5.20;2.05;;;13.30;99.90;;;;;;4975658;28;20534;-95
2022/09/09 03:14:41;;;;;;;7.38;2.75;;;13.30;99.90;;;;;;4969431;28;20030;-95
2022/09/09 03:17:09;;;;;;;8.68;2.17;;;13.30;99.90;;;;;;4982688;28;20371;-95
2022/09/09 03:19:35;;;;;;;5.53;3.10;;;13.30;99.90;;;;;;4976363;28;20041;-95
2022/09/09 03:22:00;;;;;;;4.10;2.15;;;13.30;99.90;;;;;;4989266;28;20109;-96
2022/09/09 03:24:26;;;;;;;6.00;2.15;;;13.30;99.90;;;;;;4987260;28;20116;-94
2022/09/09 03:26:51;;;;;;;4.53;2.20;;;13.30;99.90;;;;;;4987677;28;20394;-96
2022/09/09 03:29:18;;;;;;;3.80;2.00;;;13.40;99.90;;;;;;4978030;28;20031;-95
2022/09/09 03:31:43;;;;;;;5.43;2.10;;;13.40;99.90;;;;;;4976752;28;20486;-95
2022/09/09 03:34:09;;;;;;;10.98;2.03;;;13.40;99.90;;;;;;4976590;28;20082;-95
2022/09/09 03:36:35;;;;;;;5.82;2.63;;;13.40;99.90;;;;;;4994860;28;20565;-95
2022/09/09 03:39:02;;;;;;;5.00;1.92;;;13.40;99.90;;;;;;4971197;28;20027;-95
2022/09/09 03:41:29;;;;;;;7.65;2.53;;;13.50;99.90;;;;;;4977278;28;20030;-96
2022/09/09 03:43:54;;;;;;;5.13;2.30;;;13.50;99.90;;;;;;4976297;28;20077;-95
2022/09/09 03:46:22;;;;;;;7.07;2.25;;;13.50;99.90;;;;;;4990984;28;20030;-95
2022/09/09 03:48:47;;;;;;;5.35;2.35;;;13.50;99.90;;;;;;4992530;28;20023;-95
2022/09/09 03:51:13;;;;;;;8.30;2.50;;;13.60;99.90;;;;;;4971755;28;20090;-96
2022/09/09 03:53:39;;;;;;;6.53;2.45;;;13.60;99.90;;;;;;4972298;28;20038;-95
2022/09/09 03:56:06;;;;;;;4.30;2.65;;;13.60;99.90;;;;;;4976393;28;20443;-95
2022/09/09 03:58:36;;;;;;;7.20;2.45;;;13.70;99.90;;;;;;4973168;28;20085;-94
2022/09/09 04:01:12;;;;;;;9.27;2.42;;;13.70;99.90;;;;;;4976606;28;20045;-94
2022/09/09 04:03:39;;;;;;;6.75;2.50;;;13.80;99.90;;;;;;4981999;28;20072;-95
2022/09/09 04:06:07;;;;;;;7.00;3.40;;;13.80;99.90;;;;;;4976685;28;20557;-95
2022/09/09 04:08:33;;;;;;;6.75;3.08;;;13.80;99.90;;;;;;4977147;28;20050;-94
2022/09/09 04:11:00;;;;;;;6.72;2.80;;;13.90;99.90;;;;;;4975935;28;20034;-94
2022/09/09 04:13:26;;;;;;;8.35;2.70;;;13.90;99.90;;;;;;4960111;28;20475;-95
2022/09/09 04:15:56;;;;;;;7.28;2.70;;;13.90;99.90;;;;;;4988211;28;20030;-96
2022/09/09 04:18:23;;;;;;;7.25;2.65;;;13.90;99.90;;;;;;4985375;28;20022;-95
2022/09/09 04:20:50;;;;;;;9.05;2.40;;;14.00;99.90;;;;;;4980009;28;20042;-95
2022/09/09 04:23:18;;;;;;;5.75;2.53;;;14.00;99.90;;;;;;4977742;28;20038;-95
2022/09/09 04:25:46;;;;;;;6.80;2.30;;;14.00;99.90;;;;;;4980177;28;20878;-96
2022/09/09 04:28:16;;;;;;;7.13;2.60;;;14.00;99.90;;;;;;4975739;28;20101;-94
2022/09/09 04:30:43;;;;;;;8.60;2.47;;;14.10;99.90;;;;;;4981257;28;20041;-96
2022/09/09 04:33:09;;;;;;;6.60;2.83;;;14.10;99.90;;;;;;4980058;28;20026;-96
2022/09/09 04:35:36;;;;;;;6.35;2.35;;;14.10;99.90;;;;;;4960677;28;20026;-96
2022/09/09 04:38:02;;;;;;;5.90;2.42;;;14.10;99.90;;;;;;4977652;28;20027;-96
2022/09/09 04:40:29;;;;;;;6.72;2.33;;;14.20;99.90;;;;;;4973367;28;20047;-94
2022/09/09 04:42:55;;;;;;;5.25;2.13;;;14.20;99.90;;;;;;4966854;28;20019;-96
2022/09/09 04:45:22;;;;;;;9.30;2.58;;;14.20;99.90;;;;;;4974972;28;20029;-95
2022/09/09 04:47:48;;;;;;;4.10;1.92;;;14.30;99.90;;;;;;4983733;28;20030;-93
2022/09/09 04:50:14;;;;;;;4.93;2.35;;;14.30;99.90;;;;;;4971761;28;20037;-95
2022/09/09 04:52:40;;;;;;;7.63;1.83;;;14.30;99.90;;;;;;4980155;28;20022;-96
2022/09/09 04:55:07;;;;;;;3.80;1.88;;;14.40;99.90;;;;;;4979705;28;20031;-95
2022/09/09 04:57:32;;;;;;;11.20;2.60;;;14.40;99.90;;;;;;4975571;28;20022;-96
2022/09/09 04:59:59;;;;;;;10.43;2.25;;;14.40;99.90;;;;;;4982039;28;20125;-96
2022/09/09 05:02:26;;;;;;;9.27;2.22;;;14.40;99.90;;;;;;4954372;28;20030;-95
2022/09/09 05:04:51;;;;;;;4.93;2.08;;;14.40;99.90;;;;;;4975776;28;20066;-96
2022/09/09 05:07:18;;;;;;;7.35;1.77;;;14.40;99.90;;;;;;4982941;28;20059;-96
2022/09/09 05:09:45;;;;;;;7.80;1.95;;;14.40;99.90;;;;;;4999500;28;20027;-96
2022/09/09 05:12:11;;;;;;;5.40;2.25;;;14.30;99.90;;;;;;4977315;28;20038;-96
2022/09/09 05:14:37;;;;;;;8.07;2.25;;;14.30;99.90;;;;;;4990321;28;20022;-96
2022/09/09 05:17:03;;;;;;;12.35;2.10;;;14.30;99.90;;;;;;4988682;28;20038;-95
2022/09/09 05:19:30;;;;;;;5.32;1.85;;;14.30;99.90;;;;;;4978965;28;20035;-96
2022/09/09 05:21:56;;;;;;;7.20;2.17;;;14.40;99.90;;;;;;4981514;28;20019;-95
2022/09/09 05:24:25;;;;;;;7.10;2.60;;;14.40;99.90;;;;;;4993832;28;20030;-96
2022/09/09 05:26:51;;;;;;;7.00;1.65;;;14.40;99.90;;;;;;5002327;28;20086;-96
2022/09/09 05:29:19;;;;;;;9.25;2.45;;;14.50;99.90;;;;;;4984616;28;20026;-95
2022/09/09 05:31:45;;;;;;;5.28;2.10;;;14.50;99.90;;;;;;4992505;28;20033;-95
2022/09/09 05:34:12;;;;;;;8.60;2.20;;;14.50;99.90;;;;;;5001032;28;20024;-94
2022/09/09 05:36:37;;;;;;;5.93;1.52;;;14.50;99.90;;;;;;4983108;28;20023;-95
2022/09/09 05:39:04;;;;;;;8.18;1.73;;;14.50;99.90;;;;;;4980225;28;20037;-95
2022/09/09 05:41:30;;;;;;;4.68;1.70;;;14.50;99.90;;;;;;4978007;28;20046;-95
2022/09/09 05:43:55;;;;;;;11.35;2.63;;;14.50;99.90;;;;;;4993659;28;20022;-96
2022/09/09 05:46:23;;;;;;;6.68;1.70;;;14.50;99.90;;;;;;4984861;28;20022;-95
2022/09/09 05:48:51;;;;;;;8.23;1.50;;;14.60;99.90;;;;;;4981215;28;20125;-95
2022/09/09 05:51:23;;;;;;;6.90;1.48;;;14.60;99.90;;;;;;4952450;28;20019;-96
2022/09/09 05:53:51;;;;;;;6.07;1.80;;;14.70;99.90;;;;;;5001449;28;20041;-95
2022/09/09 05:56:22;;;;;;;6.88;1.65;;;14.80;99.90;;;;;;4974023;28;20090;-95
2022/09/09 05:58:49;;;;;;;9.88;2.33;;;14.80;99.90;;;;;;4968580;28;20081;-95
2022/09/09 06:01:17;;;;;;;10.35;2.15;;;14.80;99.90;;;;;;4966826;28;20505;-95
2022/09/09 06:03:44;;;;;;;6.22;1.75;;;14.90;99.90;;;;;;4971867;28;20023;-96
2022/09/09 06:06:13;;;;;;;7.82;1.50;;;14.90;99.90;;;;;;4980188;28;20031;-95
2022/09/09 06:08:40;;;;;;;5.68;1.20;;;15.00;99.90;;;;;;4975767;28;20037;-95
2022/09/09 06:11:15;;;;;;;9.07;1.50;;;15.00;99.90;;;;;;4978783;28;20023;-94
2022/09/09 06:13:41;;;;;;;6.95;1.58;;;15.00;99.90;;;;;;4973557;28;20118;-96
2022/09/09 06:16:16;;;;;;;6.93;1.42;;;15.00;99.90;;;;;;4982482;28;20084;-94
2022/09/09 06:18:42;;;;;;;6.45;1.25;;;15.10;99.90;;;;;;4997999;28;20045;-94
2022/09/09 06:21:20;;;;;;;5.68;1.83;;;15.10;99.90;;;;;;4991976;28;20521;-93
2022/09/09 06:23:47;;;;;;;10.35;1.40;;;15.20;99.90;;;;;;4988445;28;20030;-94
2022/09/09 06:26:32;;;;;;;9.88;1.45;;;15.20;99.90;;;;;;4979271;28;20508;-94
2022/09/09 06:28:59;;;;;;;7.60;1.80;;;15.20;99.90;;;;;;4978561;28;20102;-94
2022/09/09 06:31:30;;;;;;;8.65;1.70;;;15.20;99.90;;;;;;4986131;28;20505;-94
2022/09/09 06:33:56;;;;;;;5.25;1.35;;;15.30;99.90;;;;;;5002741;28;20049;-95
2022/09/09 06:36:28;;;;;;;8.48;1.25;;;15.30;99.90;;;;;;4987039;28;20027;-94
2022/09/09 06:38:54;;;;;;;8.23;1.52;;;15.30;99.90;;;;;;4976500;28;20041;-93
2022/09/09 06:41:23;;;;;;;8.93;1.20;;;15.30;99.90;;;;;;4980773;28;20038;-93
2022/09/09 06:43:49;;;;;;;10.50;1.60;;;15.30;99.90;;;;;;4970442;28;20549;-94
2022/09/09 06:46:21;;;;;;;10.63;2.22;;;15.30;99.90;;;;;;4975293;28;20034;-96
2022/09/09 06:48:47;;;;;;;;;;;15.40;99.90;;;;;;5000751;28;20121;-95
2022/09/09 06:51:23;;;;;;;5.82;1.25;;;15.40;99.90;;;;;;4965007;28;19964;-95
2022/09/09 06:53:54;;;;;;;6.03;1.58;;;15.40;99.90;;;;;;4969270;28;20026;-94
2022/09/09 06:56:22;;;;;;;9.30;1.60;;;15.50;99.90;;;;;;4975605;28;20046;-93
2022/09/09 06:58:52;;;;;;;6.07;1.45;;;15.60;99.90;;;;;;4974335;28;20053;-96
2022/09/09 07:01:20;;;;;;;11.50;1.60;;;15.70;99.90;;;;;;4982830;28;20034;-93
2022/09/09 07:03:49;;;;;;;8.88;1.83;;;15.80;99.90;;;;;;4986331;28;20135;-94
2022/09/09 07:06:19;;;;;;;5.50;1.42;;;15.90;99.90;;;;;;5002639;28;20030;-93
2022/09/09 07:08:52;;;;;;;7.70;1.63;;;16.00;99.90;;;;;;4976987;28;20132;-95
2022/09/09 07:11:19;;;;;;;12.50;1.80;;;16.20;99.90;;;;;;4985304;28;20029;-96
2022/09/09 07:13:45;;;;;;;7.25;1.83;;;16.20;99.90;;;;;;4983495;28;20086;-95
2022/09/09 07:16:13;;;;;;;9.88;1.70;;;16.20;99.90;;;;;;5000021;28;20026;-94
2022/09/09 07:18:40;;;;;;;7.38;1.42;;;16.30;99.90;;;;;;5002986;28;20038;-94
2022/09/09 07:21:07;;;;;;;5.65;1.30;;;16.40;99.90;;;;;;4985660;28;20038;-95
2022/09/09 07:23:35;;;;;;;9.00;1.70;;;16.40;99.90;;;;;;4983011;28;20023;-95
2022/09/09 07:26:01;;;;;;;7.25;1.40;;;16.50;99.90;;;;;;4963695;28;20058;-96
2022/09/09 07:28:28;;;;;;;9.10;2.25;;;16.50;99.90;;;;;;5005700;28;20030;-95
2022/09/09 07:31:04;;;;;;;5.55;1.08;;;16.60;99.90;;;;;;5003718;28;20057;-94
2022/09/09 07:33:33;;;;;;;7.50;2.00;;;16.70;99.90;;;;;;4978983;28;20056;-96
2022/09/09 07:36:09;;;;;;;6.97;1.75;;;16.80;99.90;;;;;;5000512;28;20029;-94
2022/09/09 07:38:46;;;;;;;6.25;1.85;;;16.80;99.90;;;;;;4993142;28;20042;-94
2022/09/09 07:41:15;;;;;;;6.50;1.50;;;16.90;99.90;;;;;;4988309;28;20034;-95
2022/09/09 07:43:43;;;;;;;5.38;1.38;;;16.90;99.90;;;;;;4979278;28;20425;-94
2022/09/09 07:46:10;;;;;;;9.38;2.00;;;16.90;99.90;;;;;;4985650;28;20440;-95
2022/09/09 07:48:36;;;;;;;6.25;1.40;;;16.80;99.90;;;;;;5000732;28;20815;-95
2022/09/09 07:51:11;;;;;;;7.53;1.45;;;16.90;99.90;;;;;;4974282;28;20027;-93
2022/09/09 07:53:38;;;;;;;10.38;1.20;;;17.10;99.90;;;;;;4972619;28;20066;-94
2022/09/09 07:56:10;;;;;;;5.38;1.55;;;17.20;99.90;;;;;;4975151;28;20023;-94
2022/09/09 07:58:37;;;;;;;12.70;1.65;;;17.30;99.90;;;;;;4974548;28;20105;-93
2022/09/09 08:01:11;;;;;;;7.18;1.10;;;17.30;99.90;;;;;;4962791;28;20042;-94
2022/09/09 08:03:37;;;;;;;6.10;0.88;;;17.30;99.90;;;;;;4984412;28;20049;-95
2022/09/09 08:06:06;;;;;;;8.00;1.52;;;17.40;99.90;;;;;;4986493;28;20048;-94
2022/09/09 08:08:32;;;;;;;4.80;0.90;;;17.40;99.90;;;;;;5002634;28;20038;-93
2022/09/09 08:11:07;;;;;;;7.03;1.13;;;17.40;99.90;;;;;;4990404;28;20030;-93
2022/09/09 08:13:33;;;;;;;7.07;0.90;;;17.50;99.90;;;;;;4986967;28;20019;-93
2022/09/09 08:16:15;;;;;;;8.57;0.70;;;17.50;99.90;;;;;;4994757;28;20185;-94
2022/09/09 08:18:41;;;;;;;8.52;0.85;;;17.60;99.90;;;;;;4979752;28;20109;-94
2022/09/09 08:21:17;;;;;;;8.13;0.80;;;17.70;99.90;;;;;;4978040;28;20038;-94
2022/09/09 08:23:45;;;;;;;7.45;1.10;;;17.80;99.90;;;;;;4965680;28;20023;-93
2022/09/09 08:26:41;;;;;;;4.78;0.70;;;17.90;99.90;;;;;;4973528;28;20519;-94
2022/09/09 08:29:10;;;;;;;5.07;0.77;;;17.90;99.90;;;;;;4993888;28;20114;-93
2022/09/09 08:31:46;;;;;;;6.47;0.77;;;17.90;99.90;;;;;;4973095;28;20027;-93
2022/09/09 08:34:12;;;;;;;7.10;0.93;;;17.90;99.90;;;;;;4975235;28;20048;-93
2022/09/09 08:36:42;;;;;;;8.25;0.60;;;17.90;99.90;;;;;;4980725;28;20022;-93
2022/09/09 08:39:08;;;;;;;8.48;0.77;;;17.90;99.90;;;;;;4985433;28;20027;-95
2022/09/09 08:42:02;;;;;;;5.82;1.05;;;17.90;99.90;;;;;;4986071;28;20034;-92
2022/09/09 08:44:49;;;;;;;7.38;0.50;;;17.90;99.90;;;;;;4969023;28;20057;-92
2022/09/09 08:47:32;;;;;;;7.25;0.70;;;18.00;99.90;;;;;;4972819;28;20081;-93
2022/09/09 08:50:19;;;;;;;7.78;0.95;;;18.00;99.90;;;;;;4973826;28;20022;-93
2022/09/09 08:53:01;;;;;;;7.20;0.60;;;18.00;99.90;;;;;;4984768;28;20049;-92
2022/09/09 08:55:37;;;;;;;4.13;0.50;;;18.00;99.90;;;;;;4969464;28;20042;-94
2022/09/09 08:58:21;;;;;;;8.13;0.50;;;17.90;99.90;;;;;;4984512;28;20030;-94
2022/09/09 09:01:08;;;;;;;6.35;0.60;;;17.90;99.90;;;;;;4979170;28;20490;-93
2022/09/09 09:04:16;;;;;;;6.45;0.70;;;17.90;99.90;;;;;;4979666;28;20438;-95
2022/09/09 09:06:59;;;;;;;4.35;0.70;;;17.80;99.90;;;;;;4965064;28;20125;-94
2022/09/09 09:09:24;;;;;;;;;;;17.70;99.90;;;;;;4979159;28;20049;-94
2022/09/09 09:11:54;;;;;;;7.72;0.60;;;17.70;99.90;;;;;;4980382;28;19909;-93
2022/09/09 09:14:24;;;;;;;3.80;0.47;;;17.80;99.90;;;;;;4972949;28;20085;-96
2022/09/09 09:16:56;;;;;;;4.70;0.60;;;17.80;99.90;;;;;;4978126;28;20099;-95
2022/09/09 09:19:23;;;;;;;5.35;0.50;;;17.90;99.90;;;;;;4971675;28;20046;-94
2022/09/09 09:22:16;;;;;;;8.80;0.80;;;18.00;99.90;;;;;;4976458;28;20034;-94
2022/09/09 09:25:17;;;;;;;3.63;0.50;;;18.10;99.90;;;;;;4957215;28;20406;-94
2022/09/09 09:28:06;;;;;;;4.45;0.50;;;18.20;99.90;;;;;;4984574;28;20057;-94
2022/09/09 09:30:45;;;;;;;5.88;0.50;;;18.40;99.90;;;;;;4977021;28;20022;-94
2022/09/09 09:33:27;;;;;;;4.15;0.47;;;18.60;99.90;;;;;;4976195;28;20107;-93
2022/09/09 09:35:53;;;;;;;5.25;0.80;;;18.70;99.90;;;;;;4978601;28;20062;-91
2022/09/09 09:38:28;;;;;;;7.72;1.10;;;18.80;99.90;;;;;;4971149;28;20506;-86
2022/09/09 09:41:00;;;;;;;4.50;0.60;;;18.90;99.90;;;;;;4983098;28;20529;-92
2022/09/09 09:43:36;;;;;;;3.55;0.45;;;18.90;99.90;;;;;;4973478;28;20018;-92
2022/09/09 09:46:17;;;;;;;6.43;0.50;;;18.90;99.90;;;;;;4991279;28;20062;-88
2022/09/09 09:48:43;;;;;;;5.97;0.55;;;18.90;99.90;;;;;;4975490;28;20038;-92
2022/09/09 09:51:13;;;;;;;6.28;0.50;;;18.90;99.90;;;;;;4994963;28;20027;-93
2022/09/09 09:53:39;;;;;;;3.83;0.50;;;18.90;99.90;;;;;;4972088;28;20061;-92
2022/09/09 09:56:10;;;;;;;5.38;0.50;;;18.80;99.90;;;;;;4989522;28;20105;-92
2022/09/09 09:58:50;;;;;;;4.03;0.50;;;18.70;99.90;;;;;;4986680;28;20022;-90
2022/09/09 10:01:29;;;;;;;4.90;0.50;;;18.60;99.90;;;;;;4972292;28;20097;-92
2022/09/09 10:03:59;;;;;;;4.13;0.50;;;18.60;99.90;;;;;;4976539;28;20033;-92
2022/09/09 10:06:36;;;;;;;6.78;0.68;;;18.60;99.90;;;;;;4989577;28;20449;-93
2022/09/09 10:09:07;;;;;;;8.07;0.60;;;18.60;99.90;;;;;;4991100;28;20022;-91
2022/09/09 10:11:34;;;;;;;;;;;18.70;99.90;;;;;;4970558;28;20383;-92
2022/09/09 10:14:14;;;;;;;4.65;0.50;;;18.60;99.90;;;;;;4980314;28;20010;-91
2022/09/09 10:16:46;;;;;;;3.20;0.40;;;18.60;99.90;;;;;;4994095;28;20034;-92
2022/09/09 10:19:14;;;;;;;7.23;0.47;;;18.50;99.90;;;;;;4984492;28;20035;-91
2022/09/09 10:21:57;;;;;;;7.13;0.60;;;18.40;99.90;;;;;;4988107;28;20042;-93
2022/09/09 10:24:28;;;;;;;7.95;0.70;;;18.40;99.90;;;;;;4988372;28;20030;-92
2022/09/09 10:27:14;;;;;;;4.45;0.55;;;18.60;99.90;;;;;;4983400;28;20037;-92
2022/09/09 10:29:55;;;;;;;5.28;0.50;;;18.70;99.90;;;;;;4988893;28;20591;-91
2022/09/09 10:32:39;;;;;;;5.05;0.50;;;18.80;99.90;;;;;;4970119;28;20027;-92
2022/09/09 10:35:21;;;;;;;6.45;0.70;;;18.90;99.90;;;;;;4982565;28;20034;-91
2022/09/09 10:37:58;;;;;;;5.22;0.80;;;18.90;99.90;;;;;;4978959;28;20167;-92
2022/09/09 10:40:34;;;;;;;7.05;0.40;;;18.90;99.90;;;;;;4975618;28;20598;-91
2022/09/09 10:43:10;;;;;;;4.93;0.50;;;18.80;99.90;;;;;;4972927;28;20037;-92
2022/09/09 10:46:20;;;;;;;7.65;0.80;;;18.70;99.90;;;;;;4979933;28;20027;-91
2022/09/09 10:49:03;;;;;;;4.85;0.98;;;18.70;99.90;;;;;;4966986;28;20027;-90
2022/09/09 10:51:53;;;;;;;3.67;0.43;;;18.70;99.90;;;;;;4994082;28;20085;-92
2022/09/09 10:54:32;;;;;;;4.95;0.60;;;18.50;99.90;;;;;;4986952;28;20038;-91
2022/09/09 10:57:05;;;;;;;5.88;1.02;;;18.20;99.90;;;;;;4961343;28;20403;-93
2022/09/09 10:59:57;;;;;;;6.72;0.60;;;18.00;99.90;;;;;;4981562;28;20636;-92
2022/09/09 11:02:30;;;;;;;6.35;0.60;;;17.80;99.90;;;;;;4983921;28;20499;-93
2022/09/09 11:05:05;;;;;;;6.30;0.80;;;17.80;99.90;;;;;;4972627;28;20037;-93
2022/09/09 11:07:38;;;;;;;6.43;0.70;;;17.90;99.90;;;;;;4962180;28;20042;-94
2022/09/09 11:10:16;;;;;;;5.85;0.80;;;18.10;99.90;;;;;;4969094;28;20042;-93
2022/09/09 11:12:45;;;;;;;4.78;0.80;;;18.30;99.90;;;;;;4964772;28;20061;-92
2022/09/09 11:15:35;;;;;;;6.35;0.88;;;18.40;99.90;;;;;;4978589;28;20110;-91
2022/09/09 11:18:04;;;;;;;4.40;0.98;;;18.60;99.90;;;;;;4986257;28;20022;-91
2022/09/09 11:20:31;;;;;;;5.55;0.60;;;18.60;99.90;;;;;;4976397;28;22272;-89
2022/09/09 11:23:12;;;;;;;4.43;0.60;;;18.60;99.90;;;;;;4968556;28;20022;-90
2022/09/09 11:25:47;;;;;;;4.72;0.65;;;18.60;99.90;;;;;;4964505;28;20036;-91
2022/09/09 11:28:32;;;;;;;4.40;0.60;;;18.70;99.90;;;;;;4982370;28;20514;-90
2022/09/09 11:31:11;;;;;;;7.57;0.70;;;18.70;99.90;;;;;;4966116;28;20030;-91
2022/09/09 11:34:14;;;;;;;2.97;0.47;;;18.60;99.90;;;;;;4972842;28;20479;-90
2022/09/09 11:36:55;;;;;;;;;;;18.50;99.90;;;;;;4967487;28;20041;-90
2022/09/09 11:39:52;;;;;;;4.68;0.52;;;18.50;99.90;;;;;;4980247;28;19941;-90
2022/09/09 11:42:24;;;;;;;4.03;0.68;;;18.40;99.90;;;;;;4986728;28;20053;-89
2022/09/09 11:44:50;;;;;;;3.28;0.93;;;18.50;99.90;;;;;;4968865;28;20788;-90
2022/09/09 11:47:33;;;;;;;3.17;0.50;;;18.60;99.90;;;;;;4968599;28;20030;-89
2022/09/09 11:50:17;;;;;;;5.20;0.65;;;18.60;99.90;;;;;;4975004;28;20034;-90
2022/09/09 11:52:49;;;;;;;3.83;0.50;;;18.50;99.90;;;;;;4993787;28;20125;-90
2022/09/09 11:55:30;;;;;;;6.40;0.50;;;18.50;99.90;;;;;;4987327;28;20022;-89
2022/09/09 11:58:01;;;;;;;4.78;0.60;;;18.40;99.90;;;;;;4966278;28;20486;-90
2022/09/09 12:00:37;;;;;;;6.82;0.63;;;18.20;99.90;;;;;;4971809;28;20435;-91
2022/09/09 12:03:04;;;;;;;6.80;0.80;;;18.20;99.90;;;;;;4981541;28;20027;-89
2022/09/09 12:05:44;;;;;;;4.47;0.52;;;18.30;99.90;;;;;;4986364;28;20499;-90
2022/09/09 12:08:17;;;;;;;3.33;0.60;;;18.20;99.90;;;;;;4986974;28;20073;-90
2022/09/09 12:10:59;;;;;;;3.88;0.50;;;18.30;99.90;;;;;;4975420;28;20027;-90
2022/09/09 12:13:26;;;;;;;5.30;0.57;;;18.30;99.90;;;;;;4993258;28;20023;-89
2022/09/09 12:15:57;;;;;;;4.03;0.88;;;18.40;99.90;;;;;;4989367;28;20088;-90
2022/09/09 12:18:25;;;;;;;5.45;0.80;;;18.40;99.90;;;;;;4993393;28;20029;-88
2022/09/09 12:21:14;;;;;;;3.35;0.50;;;18.30;99.90;;;;;;4968055;28;20042;-90
2022/09/09 12:23:49;;;;;;;3.50;0.50;;;18.40;99.90;;;;;;4970310;28;20034;-90
2022/09/09 12:26:14;;;;;;;2.92;0.43;;;18.70;99.90;;;;;;4994639;28;20057;-90
2022/09/09 12:29:05;;;;;;;4.53;1.15;;;18.80;99.90;;;;;;4986134;28;20042;-90
2022/09/09 12:31:46;;;;;;;4.68;0.90;;;18.90;99.90;;;;;;4971527;28;20026;-91
2022/09/09 12:34:50;;;;;;;4.65;0.77;;;18.90;99.90;;;;;;4981788;28;20058;-93
2022/09/09 12:37:25;;;;;;;5.30;0.80;;;19.00;99.90;;;;;;4953845;28;20043;-91
2022/09/09 12:39:55;;;;;;;6.28;0.80;;;19.10;99.90;;;;;;4968481;28;20030;-90
2022/09/09 12:42:22;;;;;;;4.03;0.77;;;19.10;99.90;;;;;;4983941;28;20102;-90
2022/09/09 12:44:51;;;;;;;3.70;0.50;;;19.00;99.90;;;;;;4984405;28;20057;-90
2022/09/09 12:47:20;;;;;;;5.72;1.02;;;18.90;99.90;;;;;;4986477;28;20494;-91
2022/09/09 12:49:49;;;;;;;5.50;0.63;;;18.80;99.90;;;;;;4986333;28;20039;-90
2022/09/09 12:52:18;;;;;;;4.07;0.70;;;18.70;99.90;;;;;;4968201;28;20050;-90
2022/09/09 12:54:51;;;;;;;4.03;0.80;;;18.60;99.90;;;;;;4983516;28;20034;-93
2022/09/09 12:57:17;;;;;;;6.43;0.80;;;18.70;99.90;;;;;;4967921;28;20034;-90
2022/09/09 12:59:48;;;;;;;3.13;0.70;;;18.70;99.90;;;;;;4973336;28;20490;-90
2022/09/09 13:02:27;;;;;;;4.45;0.80;;;19.00;99.90;;;;;;4984061;28;20078;-92
2022/09/09 13:04:54;;;;;;;1.80;0.70;;;19.20;99.90;;;;;;4983028;28;20122;-91
2022/09/09 13:07:21;;;;;;;5.68;0.70;;;19.30;99.90;;;;;;4970701;28;20041;-91
2022/09/09 13:09:48;;;;;;;2.65;0.50;;;19.40;99.90;;;;;;4972868;28;20031;-91
2022/09/09 13:12:20;;;;;;;3.20;0.75;;;19.50;99.90;;;;;;4984453;28;20047;-89
2022/09/09 13:14:48;;;;;;;;;;;19.70;99.90;;;;;;4967604;28;20526;-90
2022/09/09 13:17:22;;;;;;;4.40;1.02;;;19.80;99.90;;;;;;4972375;28;19910;-91